sensor_id;sensor_type;location;lat;lon;timestamp;P1;durP1;ratioP1;P2;durP2;ratioP2
79135;SDS011;68533;51.090;17.216;2023-05-16T00:01:38;8.40;;;3.53;;
79135;SDS011;68533;51.090;17.216;2023-05-16T00:04:04;6.45;;;3.45;;
79135;SDS011;68533;51.090;17.216;2023-05-16T00:06:30;4.45;;;2.85;;
79135;SDS011;68533;51.090;17.216;2023-05-16T00:08:56;3.33;;;2.30;;
79135;SDS011;68533;51.090;17.216;2023-05-16T00:11:22;8.65;;;3.50;;
79135;SDS011;68533;51.090;17.216;2023-05-16T00:13:48;7.28;;;3.42;;
79135;SDS011;68533;51.090;17.216;2023-05-16T00:16:14;7.85;;;3.50;;
79135;SDS011;68533;51.090;17.216;2023-05-16T00:18:40;4.88;;;2.50;;
79135;SDS011;68533;51.090;17.216;2023-05-16T00:21:06;8.48;;;3.63;;
79135;SDS011;68533;51.090;17.216;2023-05-16T00:23:32;5.38;;;3.33;;
79135;SDS011;68533;51.090;17.216;2023-05-16T00:25:58;4.18;;;2.28;;
79135;SDS011;68533;51.090;17.216;2023-05-16T00:28:24;7.10;;;2.95;;
79135;SDS011;68533;51.090;17.216;2023-05-16T00:30:50;4.05;;;2.45;;
79135;SDS011;68533;51.090;17.216;2023-05-16T00:33:16;5.63;;;2.47;;
79135;SDS011;68533;51.090;17.216;2023-05-16T00:35:42;5.38;;;2.53;;
79135;SDS011;68533;51.090;17.216;2023-05-16T00:38:08;6.82;;;2.40;;
79135;SDS011;68533;51.090;17.216;2023-05-16T00:40:35;6.00;;;3.30;;
79135;SDS011;68533;51.090;17.216;2023-05-16T00:43:01;8.52;;;3.83;;
79135;SDS011;68533;51.090;17.216;2023-05-16T00:45:29;7.93;;;3.22;;
79135;SDS011;68533;51.090;17.216;2023-05-16T00:47:55;4.85;;;3.28;;
79135;SDS011;68533;51.090;17.216;2023-05-16T00:50:21;6.55;;;3.10;;
79135;SDS011;68533;51.090;17.216;2023-05-16T00:52:47;9.30;;;3.13;;
79135;SDS011;68533;51.090;17.216;2023-05-16T00:55:13;6.75;;;3.20;;
79135;SDS011;68533;51.090;17.216;2023-05-16T00:57:39;10.98;;;4.05;;
79135;SDS011;68533;51.090;17.216;2023-05-16T01:02:41;6.30;;;3.40;;
79135;SDS011;68533;51.090;17.216;2023-05-16T01:05:08;6.85;;;3.00;;
79135;SDS011;68533;51.090;17.216;2023-05-16T01:07:34;6.28;;;3.25;;
79135;SDS011;68533;51.090;17.216;2023-05-16T01:10:01;5.47;;;2.78;;
79135;SDS011;68533;51.090;17.216;2023-05-16T01:15:12;7.32;;;3.35;;
79135;SDS011;68533;51.090;17.216;2023-05-16T01:26:28;5.53;;;3.10;;
79135;SDS011;68533;51.090;17.216;2023-05-16T01:28:56;5.90;;;3.10;;
79135;SDS011;68533;51.090;17.216;2023-05-16T01:31:23;6.45;;;3.03;;
79135;SDS011;68533;51.090;17.216;2023-05-16T01:33:49;8.90;;;3.53;;
79135;SDS011;68533;51.090;17.216;2023-05-16T01:41:24;8.00;;;3.78;;
79135;SDS011;68533;51.090;17.216;2023-05-16T01:43:57;5.55;;;3.17;;
79135;SDS011;68533;51.090;17.216;2023-05-16T01:46:29;7.40;;;3.80;;
79135;SDS011;68533;51.090;17.216;2023-05-16T01:49:08;4.93;;;3.10;;
79135;SDS011;68533;51.090;17.216;2023-05-16T01:51:44;6.43;;;3.80;;
79135;SDS011;68533;51.090;17.216;2023-05-16T01:54:17;7.75;;;3.53;;
79135;SDS011;68533;51.090;17.216;2023-05-16T01:56:47;5.47;;;3.30;;
79135;SDS011;68533;51.090;17.216;2023-05-16T01:59:17;4.97;;;2.75;;
79135;SDS011;68533;51.090;17.216;2023-05-16T02:01:46;6.47;;;2.72;;
79135;SDS011;68533;51.090;17.216;2023-05-16T02:04:12;8.95;;;4.03;;
79135;SDS011;68533;51.090;17.216;2023-05-16T02:06:42;7.25;;;3.88;;
79135;SDS011;68533;51.090;17.216;2023-05-16T02:09:08;6.65;;;3.17;;
79135;SDS011;68533;51.090;17.216;2023-05-16T02:11:34;6.55;;;3.65;;
79135;SDS011;68533;51.090;17.216;2023-05-16T02:14:00;7.88;;;3.92;;
79135;SDS011;68533;51.090;17.216;2023-05-16T02:18:55;6.78;;;3.33;;
79135;SDS011;68533;51.090;17.216;2023-05-16T02:21:21;6.68;;;3.35;;
79135;SDS011;68533;51.090;17.216;2023-05-16T02:23:46;6.93;;;3.15;;
79135;SDS011;68533;51.090;17.216;2023-05-16T02:26:13;5.97;;;3.70;;
79135;SDS011;68533;51.090;17.216;2023-05-16T02:28:38;6.15;;;2.80;;
79135;SDS011;68533;51.090;17.216;2023-05-16T02:31:05;7.18;;;4.03;;
79135;SDS011;68533;51.090;17.216;2023-05-16T02:33:31;7.47;;;3.17;;
79135;SDS011;68533;51.090;17.216;2023-05-16T02:35:58;6.22;;;3.13;;
79135;SDS011;68533;51.090;17.216;2023-05-16T02:38:24;5.80;;;2.80;;
79135;SDS011;68533;51.090;17.216;2023-05-16T02:40:52;7.35;;;4.07;;
79135;SDS011;68533;51.090;17.216;2023-05-16T02:43:18;9.60;;;4.80;;
79135;SDS011;68533;51.090;17.216;2023-05-16T02:45:44;6.50;;;3.20;;
79135;SDS011;68533;51.090;17.216;2023-05-16T02:48:12;5.40;;;2.50;;
79135;SDS011;68533;51.090;17.216;2023-05-16T02:50:38;6.05;;;3.10;;
79135;SDS011;68533;51.090;17.216;2023-05-16T02:53:05;9.10;;;3.80;;
79135;SDS011;68533;51.090;17.216;2023-05-16T02:55:38;5.53;;;2.97;;
79135;SDS011;68533;51.090;17.216;2023-05-16T02:58:06;6.43;;;3.45;;
79135;SDS011;68533;51.090;17.216;2023-05-16T03:00:33;5.93;;;3.47;;
79135;SDS011;68533;51.090;17.216;2023-05-16T03:02:59;9.07;;;2.85;;
79135;SDS011;68533;51.090;17.216;2023-05-16T03:05:25;4.65;;;3.05;;
79135;SDS011;68533;51.090;17.216;2023-05-16T03:07:51;5.57;;;3.17;;
79135;SDS011;68533;51.090;17.216;2023-05-16T03:10:19;10.70;;;4.10;;
79135;SDS011;68533;51.090;17.216;2023-05-16T03:12:45;8.20;;;3.42;;
79135;SDS011;68533;51.090;17.216;2023-05-16T03:15:11;6.13;;;3.38;;
79135;SDS011;68533;51.090;17.216;2023-05-16T03:17:37;3.95;;;2.63;;
79135;SDS011;68533;51.090;17.216;2023-05-16T03:20:03;11.25;;;3.78;;
79135;SDS011;68533;51.090;17.216;2023-05-16T03:22:34;5.97;;;3.10;;
79135;SDS011;68533;51.090;17.216;2023-05-16T03:25:03;6.82;;;3.13;;
79135;SDS011;68533;51.090;17.216;2023-05-16T03:27:29;7.25;;;3.30;;
79135;SDS011;68533;51.090;17.216;2023-05-16T03:29:56;5.30;;;3.17;;
79135;SDS011;68533;51.090;17.216;2023-05-16T03:32:24;4.35;;;2.05;;
79135;SDS011;68533;51.090;17.216;2023-05-16T03:34:51;6.40;;;2.65;;
79135;SDS011;68533;51.090;17.216;2023-05-16T03:37:17;5.63;;;2.95;;
79135;SDS011;68533;51.090;17.216;2023-05-16T03:39:43;6.53;;;3.70;;
79135;SDS011;68533;51.090;17.216;2023-05-16T03:42:09;10.35;;;2.95;;
79135;SDS011;68533;51.090;17.216;2023-05-16T03:44:35;6.05;;;3.30;;
79135;SDS011;68533;51.090;17.216;2023-05-16T03:47:02;6.53;;;3.50;;
79135;SDS011;68533;51.090;17.216;2023-05-16T03:49:29;4.38;;;2.78;;
79135;SDS011;68533;51.090;17.216;2023-05-16T03:51:55;5.28;;;3.08;;
79135;SDS011;68533;51.090;17.216;2023-05-16T03:54:22;9.70;;;3.55;;
79135;SDS011;68533;51.090;17.216;2023-05-16T03:56:48;5.47;;;3.38;;
79135;SDS011;68533;51.090;17.216;2023-05-16T03:59:16;3.67;;;2.95;;
79135;SDS011;68533;51.090;17.216;2023-05-16T04:01:41;7.78;;;3.58;;
79135;SDS011;68533;51.090;17.216;2023-05-16T04:04:08;5.22;;;3.13;;
79135;SDS011;68533;51.090;17.216;2023-05-16T04:06:34;5.68;;;3.17;;
79135;SDS011;68533;51.090;17.216;2023-05-16T04:09:00;7.40;;;3.97;;
79135;SDS011;68533;51.090;17.216;2023-05-16T04:11:26;4.50;;;2.97;;
79135;SDS011;68533;51.090;17.216;2023-05-16T04:13:53;8.25;;;3.22;;
79135;SDS011;68533;51.090;17.216;2023-05-16T04:16:19;6.90;;;3.53;;
79135;SDS011;68533;51.090;17.216;2023-05-16T04:18:45;5.70;;;3.30;;
79135;SDS011;68533;51.090;17.216;2023-05-16T04:21:11;6.95;;;3.53;;
79135;SDS011;68533;51.090;17.216;2023-05-16T04:23:40;6.00;;;3.20;;
79135;SDS011;68533;51.090;17.216;2023-05-16T04:26:06;4.93;;;2.88;;
79135;SDS011;68533;51.090;17.216;2023-05-16T04:28:32;8.75;;;3.85;;
79135;SDS011;68533;51.090;17.216;2023-05-16T04:30:58;6.70;;;3.50;;
79135;SDS011;68533;51.090;17.216;2023-05-16T04:33:24;5.22;;;2.67;;
79135;SDS011;68533;51.090;17.216;2023-05-16T04:35:53;6.35;;;3.30;;
79135;SDS011;68533;51.090;17.216;2023-05-16T04:38:19;5.00;;;3.30;;
79135;SDS011;68533;51.090;17.216;2023-05-16T04:40:45;7.43;;;3.22;;
79135;SDS011;68533;51.090;17.216;2023-05-16T04:45:40;4.82;;;2.83;;
79135;SDS011;68533;51.090;17.216;2023-05-16T04:48:07;5.65;;;2.78;;
79135;SDS011;68533;51.090;17.216;2023-05-16T04:50:33;5.82;;;3.17;;
79135;SDS011;68533;51.090;17.216;2023-05-16T04:53:00;3.60;;;2.85;;
79135;SDS011;68533;51.090;17.216;2023-05-16T04:55:26;4.82;;;2.60;;
79135;SDS011;68533;51.090;17.216;2023-05-16T04:57:52;7.53;;;3.28;;
79135;SDS011;68533;51.090;17.216;2023-05-16T05:00:18;3.72;;;2.60;;
79135;SDS011;68533;51.090;17.216;2023-05-16T05:02:45;4.80;;;2.70;;
79135;SDS011;68533;51.090;17.216;2023-05-16T05:05:11;5.32;;;2.63;;
79135;SDS011;68533;51.090;17.216;2023-05-16T05:07:37;5.35;;;3.30;;
79135;SDS011;68533;51.090;17.216;2023-05-16T05:10:03;4.80;;;3.20;;
79135;SDS011;68533;51.090;17.216;2023-05-16T05:12:31;4.93;;;2.97;;
79135;SDS011;68533;51.090;17.216;2023-05-16T05:14:57;4.82;;;3.05;;
79135;SDS011;68533;51.090;17.216;2023-05-16T05:17:23;4.20;;;3.00;;
79135;SDS011;68533;51.090;17.216;2023-05-16T05:19:49;5.32;;;3.30;;
79135;SDS011;68533;51.090;17.216;2023-05-16T05:22:16;5.55;;;3.08;;
79135;SDS011;68533;51.090;17.216;2023-05-16T05:24:42;3.55;;;2.05;;
79135;SDS011;68533;51.090;17.216;2023-05-16T05:27:08;9.52;;;3.25;;
79135;SDS011;68533;51.090;17.216;2023-05-16T05:29:34;4.82;;;3.03;;
79135;SDS011;68533;51.090;17.216;2023-05-16T05:32:00;6.40;;;2.80;;
79135;SDS011;68533;51.090;17.216;2023-05-16T05:34:26;3.35;;;2.08;;
79135;SDS011;68533;51.090;17.216;2023-05-16T05:36:52;3.10;;;2.08;;
79135;SDS011;68533;51.090;17.216;2023-05-16T05:39:18;3.55;;;2.70;;
79135;SDS011;68533;51.090;17.216;2023-05-16T05:41:44;3.45;;;2.40;;
79135;SDS011;68533;51.090;17.216;2023-05-16T05:44:10;4.07;;;2.70;;
79135;SDS011;68533;51.090;17.216;2023-05-16T05:46:36;3.83;;;2.88;;
79135;SDS011;68533;51.090;17.216;2023-05-16T05:49:03;3.95;;;2.58;;
79135;SDS011;68533;51.090;17.216;2023-05-16T05:51:29;4.35;;;2.92;;
79135;SDS011;68533;51.090;17.216;2023-05-16T05:53:55;4.15;;;2.53;;
79135;SDS011;68533;51.090;17.216;2023-05-16T05:56:22;3.55;;;2.50;;
79135;SDS011;68533;51.090;17.216;2023-05-16T05:58:50;2.65;;;2.30;;
79135;SDS011;68533;51.090;17.216;2023-05-16T06:01:16;5.05;;;2.38;;
79135;SDS011;68533;51.090;17.216;2023-05-16T06:03:42;3.97;;;2.58;;
79135;SDS011;68533;51.090;17.216;2023-05-16T06:06:08;3.35;;;2.35;;
79135;SDS011;68533;51.090;17.216;2023-05-16T06:08:34;3.38;;;2.42;;
79135;SDS011;68533;51.090;17.216;2023-05-16T06:11:00;4.85;;;3.00;;
79135;SDS011;68533;51.090;17.216;2023-05-16T06:13:26;4.45;;;2.38;;
79135;SDS011;68533;51.090;17.216;2023-05-16T06:15:53;2.72;;;2.13;;
79135;SDS011;68533;51.090;17.216;2023-05-16T06:18:20;3.10;;;2.17;;
79135;SDS011;68533;51.090;17.216;2023-05-16T06:20:46;2.53;;;1.73;;
79135;SDS011;68533;51.090;17.216;2023-05-16T06:23:12;4.07;;;2.65;;
79135;SDS011;68533;51.090;17.216;2023-05-16T06:25:38;4.40;;;2.72;;
79135;SDS011;68533;51.090;17.216;2023-05-16T06:28:04;4.05;;;2.80;;
79135;SDS011;68533;51.090;17.216;2023-05-16T06:30:31;3.78;;;3.05;;
79135;SDS011;68533;51.090;17.216;2023-05-16T06:32:57;4.32;;;2.75;;
79135;SDS011;68533;51.090;17.216;2023-05-16T06:35:23;5.18;;;3.50;;
79135;SDS011;68533;51.090;17.216;2023-05-16T06:37:49;4.13;;;2.58;;
79135;SDS011;68533;51.090;17.216;2023-05-16T06:40:16;4.97;;;2.85;;
79135;SDS011;68533;51.090;17.216;2023-05-16T06:42:42;3.38;;;2.33;;
79135;SDS011;68533;51.090;17.216;2023-05-16T06:45:08;4.80;;;2.72;;
79135;SDS011;68533;51.090;17.216;2023-05-16T06:47:37;5.47;;;3.45;;
79135;SDS011;68533;51.090;17.216;2023-05-16T06:50:04;4.82;;;3.17;;
79135;SDS011;68533;51.090;17.216;2023-05-16T06:52:30;4.10;;;2.63;;
79135;SDS011;68533;51.090;17.216;2023-05-16T06:54:56;5.10;;;3.08;;
79135;SDS011;68533;51.090;17.216;2023-05-16T06:57:22;4.40;;;2.75;;
79135;SDS011;68533;51.090;17.216;2023-05-16T06:59:48;3.42;;;2.30;;
79135;SDS011;68533;51.090;17.216;2023-05-16T07:02:14;4.72;;;3.30;;
79135;SDS011;68533;51.090;17.216;2023-05-16T07:04:41;3.80;;;2.72;;
79135;SDS011;68533;51.090;17.216;2023-05-16T07:07:07;3.80;;;2.97;;
79135;SDS011;68533;51.090;17.216;2023-05-16T07:09:34;6.40;;;2.72;;
79135;SDS011;68533;51.090;17.216;2023-05-16T07:12:00;8.80;;;3.50;;
79135;SDS011;68533;51.090;17.216;2023-05-16T07:14:26;4.45;;;2.58;;
79135;SDS011;68533;51.090;17.216;2023-05-16T07:16:52;6.40;;;2.78;;
79135;SDS011;68533;51.090;17.216;2023-05-16T07:19:18;5.75;;;3.13;;
79135;SDS011;68533;51.090;17.216;2023-05-16T07:21:44;4.82;;;2.70;;
79135;SDS011;68533;51.090;17.216;2023-05-16T07:24:11;3.47;;;2.42;;
79135;SDS011;68533;51.090;17.216;2023-05-16T07:26:36;5.57;;;3.33;;
79135;SDS011;68533;51.090;17.216;2023-05-16T07:29:03;4.68;;;2.85;;
79135;SDS011;68533;51.090;17.216;2023-05-16T07:31:29;5.07;;;3.03;;
79135;SDS011;68533;51.090;17.216;2023-05-16T07:33:55;3.63;;;2.30;;
79135;SDS011;68533;51.090;17.216;2023-05-16T07:36:22;4.43;;;3.08;;
79135;SDS011;68533;51.090;17.216;2023-05-16T07:38:48;5.07;;;3.05;;
79135;SDS011;68533;51.090;17.216;2023-05-16T07:41:14;4.40;;;3.00;;
79135;SDS011;68533;51.090;17.216;2023-05-16T07:43:41;3.65;;;2.80;;
79135;SDS011;68533;51.090;17.216;2023-05-16T07:46:08;6.03;;;3.00;;
79135;SDS011;68533;51.090;17.216;2023-05-16T07:48:35;3.95;;;3.03;;
79135;SDS011;68533;51.090;17.216;2023-05-16T07:51:01;5.55;;;3.25;;
79135;SDS011;68533;51.090;17.216;2023-05-16T07:53:28;4.55;;;2.75;;
79135;SDS011;68533;51.090;17.216;2023-05-16T07:55:55;2.83;;;2.38;;
79135;SDS011;68533;51.090;17.216;2023-05-16T07:58:21;3.92;;;2.60;;
79135;SDS011;68533;51.090;17.216;2023-05-16T08:00:47;6.63;;;2.95;;
79135;SDS011;68533;51.090;17.216;2023-05-16T08:03:14;6.53;;;3.25;;
79135;SDS011;68533;51.090;17.216;2023-05-16T08:05:40;8.40;;;4.07;;
79135;SDS011;68533;51.090;17.216;2023-05-16T08:08:09;3.78;;;2.92;;
79135;SDS011;68533;51.090;17.216;2023-05-16T08:10:35;4.85;;;2.97;;
79135;SDS011;68533;51.090;17.216;2023-05-16T08:13:02;5.32;;;3.30;;
79135;SDS011;68533;51.090;17.216;2023-05-16T08:15:29;6.15;;;3.58;;
79135;SDS011;68533;51.090;17.216;2023-05-16T08:17:58;5.30;;;2.70;;
79135;SDS011;68533;51.090;17.216;2023-05-16T08:20:24;5.13;;;3.10;;
79135;SDS011;68533;51.090;17.216;2023-05-16T08:22:51;2.97;;;2.42;;
79135;SDS011;68533;51.090;17.216;2023-05-16T08:25:17;5.15;;;3.22;;
79135;SDS011;68533;51.090;17.216;2023-05-16T08:27:48;5.50;;;3.45;;
79135;SDS011;68533;51.090;17.216;2023-05-16T08:30:15;4.85;;;3.08;;
79135;SDS011;68533;51.090;17.216;2023-05-16T08:32:41;3.00;;;2.40;;
79135;SDS011;68533;51.090;17.216;2023-05-16T08:35:10;4.70;;;2.33;;
79135;SDS011;68533;51.090;17.216;2023-05-16T08:37:38;3.38;;;3.08;;
79135;SDS011;68533;51.090;17.216;2023-05-16T08:40:05;3.63;;;2.72;;
79135;SDS011;68533;51.090;17.216;2023-05-16T08:42:36;5.10;;;3.22;;
79135;SDS011;68533;51.090;17.216;2023-05-16T08:45:02;3.83;;;2.90;;
79135;SDS011;68533;51.090;17.216;2023-05-16T08:49:57;4.75;;;3.25;;
79135;SDS011;68533;51.090;17.216;2023-05-16T08:52:27;2.40;;;1.95;;
79135;SDS011;68533;51.090;17.216;2023-05-16T08:54:58;5.35;;;2.63;;
79135;SDS011;68533;51.090;17.216;2023-05-16T08:57:31;3.72;;;2.83;;
79135;SDS011;68533;51.090;17.216;2023-05-16T08:59:58;3.05;;;2.58;;
79135;SDS011;68533;51.090;17.216;2023-05-16T09:02:26;3.67;;;2.50;;
79135;SDS011;68533;51.090;17.216;2023-05-16T09:04:53;4.28;;;2.78;;
79135;SDS011;68533;51.090;17.216;2023-05-16T09:07:25;3.95;;;3.13;;
79135;SDS011;68533;51.090;17.216;2023-05-16T09:09:51;3.17;;;2.42;;
79135;SDS011;68533;51.090;17.216;2023-05-16T09:12:18;4.22;;;2.38;;
79135;SDS011;68533;51.090;17.216;2023-05-16T09:14:45;4.90;;;3.28;;
79135;SDS011;68533;51.090;17.216;2023-05-16T09:17:12;4.22;;;2.75;;
79135;SDS011;68533;51.090;17.216;2023-05-16T09:19:41;4.25;;;2.95;;
79135;SDS011;68533;51.090;17.216;2023-05-16T09:22:08;4.97;;;2.97;;
79135;SDS011;68533;51.090;17.216;2023-05-16T09:24:38;3.83;;;2.85;;
79135;SDS011;68533;51.090;17.216;2023-05-16T09:27:11;3.75;;;2.60;;
79135;SDS011;68533;51.090;17.216;2023-05-16T09:29:42;3.13;;;2.53;;
79135;SDS011;68533;51.090;17.216;2023-05-16T09:34:37;3.70;;;2.60;;
79135;SDS011;68533;51.090;17.216;2023-05-16T09:37:04;3.25;;;2.60;;
79135;SDS011;68533;51.090;17.216;2023-05-16T09:39:30;6.32;;;2.80;;
79135;SDS011;68533;51.090;17.216;2023-05-16T09:41:57;6.15;;;2.90;;
79135;SDS011;68533;51.090;17.216;2023-05-16T09:44:23;3.85;;;2.90;;
79135;SDS011;68533;51.090;17.216;2023-05-16T09:46:52;3.00;;;2.70;;
79135;SDS011;68533;51.090;17.216;2023-05-16T09:49:19;3.67;;;3.10;;
79135;SDS011;68533;51.090;17.216;2023-05-16T09:51:46;2.83;;;2.45;;
79135;SDS011;68533;51.090;17.216;2023-05-16T09:54:12;2.88;;;2.58;;
79135;SDS011;68533;51.090;17.216;2023-05-16T09:56:46;2.92;;;2.50;;
79135;SDS011;68533;51.090;17.216;2023-05-16T09:59:13;3.15;;;2.38;;
79135;SDS011;68533;51.090;17.216;2023-05-16T10:01:42;3.03;;;2.60;;
79135;SDS011;68533;51.090;17.216;2023-05-16T10:04:09;3.97;;;2.60;;
79135;SDS011;68533;51.090;17.216;2023-05-16T10:06:40;3.83;;;2.72;;
79135;SDS011;68533;51.090;17.216;2023-05-16T10:09:09;2.40;;;2.20;;
79135;SDS011;68533;51.090;17.216;2023-05-16T10:11:39;3.53;;;2.70;;
79135;SDS011;68533;51.090;17.216;2023-05-16T10:16:39;2.80;;;2.40;;
79135;SDS011;68533;51.090;17.216;2023-05-16T10:19:08;3.10;;;2.50;;
79135;SDS011;68533;51.090;17.216;2023-05-16T10:21:36;3.80;;;2.95;;
79135;SDS011;68533;51.090;17.216;2023-05-16T10:24:05;3.13;;;2.72;;
79135;SDS011;68533;51.090;17.216;2023-05-16T10:26:36;3.47;;;2.55;;
79135;SDS011;68533;51.090;17.216;2023-05-16T10:29:02;3.20;;;2.55;;
79135;SDS011;68533;51.090;17.216;2023-05-16T10:31:29;2.58;;;2.30;;
79135;SDS011;68533;51.090;17.216;2023-05-16T10:33:56;4.28;;;2.55;;
79135;SDS011;68533;51.090;17.216;2023-05-16T10:36:23;3.17;;;2.53;;
79135;SDS011;68533;51.090;17.216;2023-05-16T10:38:49;2.38;;;2.10;;
79135;SDS011;68533;51.090;17.216;2023-05-16T10:41:17;3.80;;;2.67;;
79135;SDS011;68533;51.090;17.216;2023-05-16T10:43:45;3.38;;;2.15;;
79135;SDS011;68533;51.090;17.216;2023-05-16T10:46:22;3.60;;;2.67;;
79135;SDS011;68533;51.090;17.216;2023-05-16T10:48:51;3.03;;;1.90;;
79135;SDS011;68533;51.090;17.216;2023-05-16T10:53:46;2.17;;;1.75;;
79135;SDS011;68533;51.090;17.216;2023-05-16T10:56:25;3.40;;;2.70;;
79135;SDS011;68533;51.090;17.216;2023-05-16T10:58:53;3.20;;;2.28;;
79135;SDS011;68533;51.090;17.216;2023-05-16T11:01:31;3.03;;;2.38;;
79135;SDS011;68533;51.090;17.216;2023-05-16T11:03:59;3.90;;;2.30;;
79135;SDS011;68533;51.090;17.216;2023-05-16T11:09:07;2.22;;;2.03;;
79135;SDS011;68533;51.090;17.216;2023-05-16T11:14:22;2.38;;;2.10;;
79135;SDS011;68533;51.090;17.216;2023-05-16T11:16:51;1.98;;;1.63;;
79135;SDS011;68533;51.090;17.216;2023-05-16T11:19:29;3.03;;;2.00;;
79135;SDS011;68533;51.090;17.216;2023-05-16T11:27:24;3.72;;;2.88;;
79135;SDS011;68533;51.090;17.216;2023-05-16T11:29:53;3.60;;;2.50;;
79135;SDS011;68533;51.090;17.216;2023-05-16T11:32:21;2.38;;;2.15;;
79135;SDS011;68533;51.090;17.216;2023-05-16T11:34:48;3.55;;;2.45;;
79135;SDS011;68533;51.090;17.216;2023-05-16T11:37:16;3.33;;;2.40;;
79135;SDS011;68533;51.090;17.216;2023-05-16T11:39:42;3.53;;;2.67;;
79135;SDS011;68533;51.090;17.216;2023-05-16T11:42:09;3.40;;;2.58;;
79135;SDS011;68533;51.090;17.216;2023-05-16T11:44:35;4.78;;;2.95;;
79135;SDS011;68533;51.090;17.216;2023-05-16T11:47:01;4.63;;;2.47;;
79135;SDS011;68533;51.090;17.216;2023-05-16T11:49:27;4.55;;;2.65;;
79135;SDS011;68533;51.090;17.216;2023-05-16T11:51:54;4.20;;;3.28;;
79135;SDS011;68533;51.090;17.216;2023-05-16T11:54:22;3.92;;;2.67;;
79135;SDS011;68533;51.090;17.216;2023-05-16T11:56:49;3.83;;;2.50;;
79135;SDS011;68533;51.090;17.216;2023-05-16T11:59:16;4.80;;;3.40;;
79135;SDS011;68533;51.090;17.216;2023-05-16T12:01:44;5.15;;;3.72;;
79135;SDS011;68533;51.090;17.216;2023-05-16T12:04:15;5.28;;;3.75;;
79135;SDS011;68533;51.090;17.216;2023-05-16T12:06:42;6.18;;;3.47;;
79135;SDS011;68533;51.090;17.216;2023-05-16T12:09:12;5.97;;;3.88;;
79135;SDS011;68533;51.090;17.216;2023-05-16T12:11:40;6.05;;;4.35;;
79135;SDS011;68533;51.090;17.216;2023-05-16T12:14:11;7.00;;;4.13;;
79135;SDS011;68533;51.090;17.216;2023-05-16T12:16:38;7.30;;;4.22;;
79135;SDS011;68533;51.090;17.216;2023-05-16T12:19:08;7.05;;;4.35;;
79135;SDS011;68533;51.090;17.216;2023-05-16T12:21:35;5.05;;;4.00;;
79135;SDS011;68533;51.090;17.216;2023-05-16T12:24:02;8.25;;;4.60;;
79135;SDS011;68533;51.090;17.216;2023-05-16T12:26:30;5.60;;;3.97;;
79135;SDS011;68533;51.090;17.216;2023-05-16T12:28:58;6.00;;;3.65;;
79135;SDS011;68533;51.090;17.216;2023-05-16T12:31:29;6.43;;;3.95;;
79135;SDS011;68533;51.090;17.216;2023-05-16T12:33:56;6.53;;;3.30;;
79135;SDS011;68533;51.090;17.216;2023-05-16T12:36:23;5.38;;;3.83;;
79135;SDS011;68533;51.090;17.216;2023-05-16T12:38:51;5.07;;;3.58;;
79135;SDS011;68533;51.090;17.216;2023-05-16T12:41:18;4.97;;;3.58;;
79135;SDS011;68533;51.090;17.216;2023-05-16T12:43:46;4.80;;;3.72;;
79135;SDS011;68533;51.090;17.216;2023-05-16T12:46:13;9.30;;;4.88;;
79135;SDS011;68533;51.090;17.216;2023-05-16T12:48:39;7.25;;;3.83;;
79135;SDS011;68533;51.090;17.216;2023-05-16T12:51:17;7.38;;;3.88;;
79135;SDS011;68533;51.090;17.216;2023-05-16T12:53:47;6.40;;;3.88;;
79135;SDS011;68533;51.090;17.216;2023-05-16T12:56:14;9.30;;;4.68;;
79135;SDS011;68533;51.090;17.216;2023-05-16T12:58:41;5.85;;;3.95;;
79135;SDS011;68533;51.090;17.216;2023-05-16T13:01:10;7.30;;;4.15;;
79135;SDS011;68533;51.090;17.216;2023-05-16T13:03:36;9.00;;;5.18;;
79135;SDS011;68533;51.090;17.216;2023-05-16T13:06:03;8.50;;;3.72;;
79135;SDS011;68533;51.090;17.216;2023-05-16T13:08:30;9.57;;;4.10;;
79135;SDS011;68533;51.090;17.216;2023-05-16T13:10:56;6.47;;;3.90;;
79135;SDS011;68533;51.090;17.216;2023-05-16T13:13:22;5.95;;;4.57;;
79135;SDS011;68533;51.090;17.216;2023-05-16T13:15:49;6.70;;;4.00;;
79135;SDS011;68533;51.090;17.216;2023-05-16T13:18:16;7.53;;;4.32;;
79135;SDS011;68533;51.090;17.216;2023-05-16T13:20:42;9.52;;;4.80;;
79135;SDS011;68533;51.090;17.216;2023-05-16T13:23:10;6.60;;;4.20;;
79135;SDS011;68533;51.090;17.216;2023-05-16T13:25:38;6.80;;;4.10;;
79135;SDS011;68533;51.090;17.216;2023-05-16T13:28:04;6.57;;;3.95;;
79135;SDS011;68533;51.090;17.216;2023-05-16T13:30:32;7.65;;;4.22;;
79135;SDS011;68533;51.090;17.216;2023-05-16T13:32:58;7.85;;;4.13;;
79135;SDS011;68533;51.090;17.216;2023-05-16T13:35:25;7.28;;;4.22;;
79135;SDS011;68533;51.090;17.216;2023-05-16T13:37:51;10.32;;;4.80;;
79135;SDS011;68533;51.090;17.216;2023-05-16T13:40:18;7.85;;;4.63;;
79135;SDS011;68533;51.090;17.216;2023-05-16T13:42:46;8.75;;;4.38;;
79135;SDS011;68533;51.090;17.216;2023-05-16T13:45:12;9.43;;;4.85;;
79135;SDS011;68533;51.090;17.216;2023-05-16T13:47:38;7.65;;;4.20;;
79135;SDS011;68533;51.090;17.216;2023-05-16T13:50:05;6.70;;;4.32;;
79135;SDS011;68533;51.090;17.216;2023-05-16T13:52:34;9.57;;;4.68;;
79135;SDS011;68533;51.090;17.216;2023-05-16T13:55:01;7.75;;;4.68;;
79135;SDS011;68533;51.090;17.216;2023-05-16T13:57:28;10.35;;;4.60;;
79135;SDS011;68533;51.090;17.216;2023-05-16T13:59:54;7.68;;;4.32;;
79135;SDS011;68533;51.090;17.216;2023-05-16T14:02:21;7.90;;;3.53;;
79135;SDS011;68533;51.090;17.216;2023-05-16T14:04:47;9.65;;;4.82;;
79135;SDS011;68533;51.090;17.216;2023-05-16T14:07:13;6.05;;;3.83;;
79135;SDS011;68533;51.090;17.216;2023-05-16T14:09:39;9.40;;;4.20;;
79135;SDS011;68533;51.090;17.216;2023-05-16T14:12:07;7.03;;;3.97;;
79135;SDS011;68533;51.090;17.216;2023-05-16T14:14:33;9.35;;;4.47;;
79135;SDS011;68533;51.090;17.216;2023-05-16T14:17:00;9.07;;;4.72;;
79135;SDS011;68533;51.090;17.216;2023-05-16T14:21:55;8.95;;;4.03;;
79135;SDS011;68533;51.090;17.216;2023-05-16T14:24:21;9.13;;;4.45;;
79135;SDS011;68533;51.090;17.216;2023-05-16T14:26:52;11.02;;;5.70;;
79135;SDS011;68533;51.090;17.216;2023-05-16T14:29:20;9.43;;;4.85;;
79135;SDS011;68533;51.090;17.216;2023-05-16T14:31:49;7.75;;;4.70;;
79135;SDS011;68533;51.090;17.216;2023-05-16T14:34:19;11.73;;;5.35;;
79135;SDS011;68533;51.090;17.216;2023-05-16T14:36:48;9.73;;;4.45;;
79135;SDS011;68533;51.090;17.216;2023-05-16T14:39:14;12.27;;;6.13;;
79135;SDS011;68533;51.090;17.216;2023-05-16T14:41:46;8.73;;;5.03;;
79135;SDS011;68533;51.090;17.216;2023-05-16T14:44:15;9.38;;;5.45;;
79135;SDS011;68533;51.090;17.216;2023-05-16T14:46:40;9.52;;;6.15;;
79135;SDS011;68533;51.090;17.216;2023-05-16T14:49:09;13.50;;;5.70;;
79135;SDS011;68533;51.090;17.216;2023-05-16T14:51:35;12.05;;;6.05;;
79135;SDS011;68533;51.090;17.216;2023-05-16T14:54:02;11.73;;;6.25;;
79135;SDS011;68533;51.090;17.216;2023-05-16T14:56:29;12.18;;;5.25;;
79135;SDS011;68533;51.090;17.216;2023-05-16T14:58:59;10.82;;;5.93;;
79135;SDS011;68533;51.090;17.216;2023-05-16T15:01:27;10.43;;;5.38;;
79135;SDS011;68533;51.090;17.216;2023-05-16T15:03:53;11.88;;;5.75;;
79135;SDS011;68533;51.090;17.216;2023-05-16T15:06:19;13.63;;;5.70;;
79135;SDS011;68533;51.090;17.216;2023-05-16T15:08:47;10.38;;;5.57;;
79135;SDS011;68533;51.090;17.216;2023-05-16T15:11:15;11.05;;;4.60;;
79135;SDS011;68533;51.090;17.216;2023-05-16T15:13:41;10.38;;;5.53;;
79135;SDS011;68533;51.090;17.216;2023-05-16T15:16:07;16.23;;;5.55;;
79135;SDS011;68533;51.090;17.216;2023-05-16T15:18:33;9.73;;;4.90;;
79135;SDS011;68533;51.090;17.216;2023-05-16T15:21:01;10.20;;;5.13;;